Saturday, January 31, 2015
10:06 UTC
  |  Log In   |  Register Free
Airport Search:

Raleigh-Durham International Airport
(KRDU)

Airport information sponsored by:
Landmark Aviation - RDU at Raleigh-Durham International (KRDU), Raleigh/Durham, NC
FAA data valid effective January 08, 2015 - March 05, 2015 (unless otherwise noted).

 
 
 
 
 
 
 
 
 
 
 
 
 
 

Current Aviation Weather for Raleigh-Durham International Airport (KRDU)

The most recent METAR observation for KRDU was updated at: 0914
METAR Summary (Translated METAR)
KRDU
310851Z 00000KT 10SM CLR M03/M13 A3032 RMK AO2 SLP271 T10281133 51007
KIGX
310856Z AUTO 29004KT 10SM CLR M03/M14 A3033 RMK AO2 SLP271 6//// T10331139 51006 PNO $
(14 nm NW from KRDU)
KTTA
310855Z AUTO 01003KT 10SM CLR M03/M12 A3033 RMK AO2 T10321123
(23.4 nm SW from KRDU)
TAF Summary (Translated TAF)
KRDU
310836Z 3109/0106 32004KT P6SM FEW250 FM311430 32006G15KT P6SM FEW250 FM312100 26006KT P6SM SCT250 FM010300 22002KT P6SM BKN150
  Airport Weather Conditions for KRDU

 Current Weather at RDU
27° F
Fair
North winds at 0.0 mph
RDU NOAA Radar

Pressure: 30.32 in
Humidity: 45%
Wind: Calm
Dew Point: 8.1°F
Visibility: 10.00 mi


Airport Weather Forecast for KRDU

Translated METAR and TAF for KRDU
Translated METAR for KRDU (1006 UTC 31 January 2015)
found at http://aviationweather.gov/adds/metars/
 
METAR text: KRDU 310951Z 00000KT 10SM CLR M03/M13 A3032 RMK AO2 SLP271 T10331133
Conditions at: KRDU (RALEIGH/DURHAM , NC, US) observed 0951 UTC 31 January 2015
Temperature: -3.3°C (26°F)
Dewpoint: -13.3°C (8°F) [RH = 46%]
Pressure (altimeter): 30.32 inches Hg (1026.8 mb)
[Sea-level pressure: 1027.1 mb]
Winds: calm
Visibility: 10 or more miles (16+ km)
Ceiling: at least 12,000 feet AGL
Clouds: sky clear below 12,000 feet AGL
Weather: no significant weather observed at this time
Translated TAF for KRDU
Forecast for: KRDU (RALEIGH/DURHAM , NC, US)
TAF Text: KRDU 310836Z 3109/0106 32004KT P6SM FEW250
Forecast period: 0900 to 1430 UTC 31 January 2015
Forecast type: FROM: standard forecast or significant change
Winds: from the NW (320 degrees) at 5 MPH (4 knots; 2.1 m/s)
Visibility: 6 or more miles (10+ km)
Clouds: few clouds at 25000 feet AGL
Weather: no significant weather forecast for this period
TAF Text: FM311430 32006G15KT P6SM FEW250
Forecast period: 1430 to 2100 UTC 31 January 2015
Forecast type: FROM: standard forecast or significant change
Winds: from the NW (320 degrees) at 7 MPH (6 knots; 3.1 m/s)
gusting to 17 MPH (15 knots; 7.8 m/s)
Visibility: 6 or more miles (10+ km)
Clouds: few clouds at 25000 feet AGL
Weather: no significant weather forecast for this period
TAF Text: FM312100 26006KT P6SM SCT250
Forecast period: 2100 UTC 31 January 2015 to 0300 UTC 01 February 2015
Forecast type: FROM: standard forecast or significant change
Winds: from the W (260 degrees) at 7 MPH (6 knots; 3.1 m/s)
Visibility: 6 or more miles (10+ km)
Clouds: scattered clouds at 25000 feet AGL
Weather: no significant weather forecast for this period
TAF Text: FM010300 22002KT P6SM BKN150
Forecast period: 0300 to 0600 UTC 01 February 2015
Forecast type: FROM: standard forecast or significant change
Winds: from the SW (220 degrees) at 2 MPH (2 knots; 1.0 m/s)
Visibility: 6 or more miles (10+ km)
Ceiling: 15000 feet AGL
Clouds: broken clouds at 15000 feet AGL
Weather: no significant weather forecast for this period

Find All Airport Services Find A Hotel Find A Rental Car Find A Golf Course Find A Restaurant $100 Hamburger



FBO's on the Field
FBO Company Facility Photos Services Transportation Aviation Fuel Prices: Prices include tax
Catering Weather Repair Courtesy Rental Type 100LL JetA JetA+ MOGAS 8087
 
Landmark Aviation - RDU

Landmark Aviation - RDU logo
Currently rated 4.4 by 2 people
FS:
Last Updated: Jan-30
Login to update fuel prices
SS:
Contact Landmark Aviation - RDUMore FBO Information
 
TAC Air - RDU

Currently rated 1.8 by 3 people
FS:Avfuel
Last Updated: Jan-14
Login to update fuel prices
SS:
Contact TAC Air - RDUMore FBO Information
 
Add another FBO Facility Photos Catering Weather Repair Courtesy Rental Type 100LL JetA JetA+ MOGAS 8087
Services Transportation Aviation Fuel Prices: Prices include tax


model-print
model-print
model-print
model-print